createdAt,value
2018-12-18T00:02:28.864Z,0.60
2018-12-18T00:12:34.927Z,0.90
2018-12-18T00:22:39.128Z,0.90
2018-12-18T00:32:43.211Z,0.90
2018-12-18T00:42:47.341Z,1.00
2018-12-18T00:52:51.411Z,1.10
2018-12-18T01:02:55.506Z,1.20
2018-12-18T01:12:59.821Z,1.30
2018-12-18T01:23:03.982Z,1.50
2018-12-18T01:33:08.036Z,1.40
2018-12-18T01:43:12.175Z,1.40
2018-12-18T01:53:16.257Z,1.10
2018-12-18T02:03:20.325Z,1.50
2018-12-18T02:13:24.441Z,1.60
2018-12-18T02:23:28.507Z,1.70
2018-12-18T02:33:32.590Z,1.70
2018-12-18T02:43:36.925Z,1.80
2018-12-18T02:53:41.454Z,1.80
2018-12-18T03:03:45.476Z,1.70
2018-12-18T03:13:49.876Z,1.70
2018-12-18T03:23:54.146Z,1.80
2018-12-18T03:33:59.380Z,1.70
2018-12-18T03:44:03.460Z,1.80
2018-12-18T03:54:07.506Z,1.80
2018-12-18T04:04:11.605Z,1.90
2018-12-18T04:14:15.686Z,2.00
2018-12-18T04:24:19.728Z,2.00
2018-12-18T04:34:23.795Z,1.90
2018-12-18T04:44:27.888Z,1.80
2018-12-18T04:54:31.977Z,1.80
2018-12-18T05:04:36.097Z,1.70
2018-12-18T05:14:41.149Z,1.70
2018-12-18T05:24:45.263Z,1.60
2018-12-18T05:34:49.384Z,1.60
2018-12-18T05:44:53.538Z,1.70
2018-12-18T05:54:58.603Z,1.50
2018-12-18T06:05:03.319Z,1.20
2018-12-18T06:15:07.865Z,1.20
2018-12-18T06:25:12.446Z,1.30
2018-12-18T06:35:16.517Z,1.10
2018-12-18T06:45:20.652Z,1.20
2018-12-18T06:55:25.769Z,1.20
2018-12-18T07:05:30.119Z,1.10
2018-12-18T07:15:34.458Z,1.10
2018-12-18T07:25:38.758Z,1.20
2018-12-18T07:35:42.935Z,1.40
2018-12-18T07:45:48.085Z,1.60
2018-12-18T07:55:52.247Z,1.60
2018-12-18T08:05:56.479Z,1.60
2018-12-18T08:16:00.711Z,1.80
2018-12-18T08:26:05.164Z,1.60
2018-12-18T08:36:09.554Z,1.80
2018-12-18T08:46:13.770Z,2.10
2018-12-18T08:56:18.994Z,2.00
2018-12-18T09:06:23.198Z,1.80
2018-12-18T09:16:32.648Z,1.90
2018-12-18T09:26:37.032Z,2.10
2018-12-18T09:36:41.386Z,2.10
2018-12-18T09:46:45.733Z,2.40
2018-12-18T09:56:51.087Z,1.90
2018-12-18T10:06:55.703Z,1.80
2018-12-18T10:16:59.961Z,2.10
2018-12-18T10:27:04.357Z,2.60
2018-12-18T10:37:08.675Z,3.00
2018-12-18T10:47:12.879Z,3.40
2018-12-18T10:57:17.298Z,3.90
2018-12-18T11:07:21.545Z,4.20
2018-12-18T11:17:25.695Z,4.20
2018-12-18T11:27:29.829Z,4.40
2018-12-18T11:37:34.089Z,4.40
2018-12-18T11:47:38.405Z,4.50
2018-12-18T11:57:42.652Z,4.40
2018-12-18T12:07:46.850Z,4.60
2018-12-18T12:17:51.434Z,4.40
2018-12-18T12:28:00.940Z,4.20
2018-12-18T12:38:05.115Z,3.80
2018-12-18T12:48:12.437Z,2.80
2018-12-18T12:58:17.073Z,3.00
2018-12-18T13:08:21.256Z,2.90
2018-12-18T13:18:25.573Z,2.70
2018-12-18T13:28:29.791Z,2.20
2018-12-18T13:38:33.950Z,2.30
2018-12-18T13:48:38.342Z,2.10
2018-12-18T13:58:42.673Z,2.10
2018-12-18T14:08:47.187Z,2.10
2018-12-18T14:18:51.298Z,2.00
2018-12-18T14:28:56.525Z,1.80
2018-12-18T14:39:00.768Z,1.20
2018-12-18T14:49:04.981Z,1.40
2018-12-18T14:59:09.198Z,1.00
2018-12-18T15:09:13.487Z,0.80
2018-12-18T15:19:18.841Z,0.80
2018-12-18T15:29:23.035Z,0.60
2018-12-18T15:39:27.353Z,0.70
2018-12-18T15:49:31.509Z,0.80
2018-12-18T15:59:35.667Z,0.80
2018-12-18T16:09:40.062Z,0.90
2018-12-18T16:19:44.483Z,1.10
2018-12-18T16:29:48.950Z,1.10
2018-12-18T16:39:53.589Z,1.50
2018-12-18T16:49:57.857Z,1.40
2018-12-18T17:00:01.999Z,1.30
2018-12-18T17:10:06.503Z,1.20
2018-12-18T17:20:10.692Z,1.20
2018-12-18T17:30:15.009Z,1.30
2018-12-18T17:40:19.165Z,2.10
2018-12-18T17:50:23.252Z,2.50
2018-12-18T18:00:27.313Z,3.00
2018-12-18T18:10:31.505Z,2.90
2018-12-18T18:20:35.673Z,2.40
2018-12-18T18:30:39.848Z,2.40
2018-12-18T18:40:44.108Z,2.10
2018-12-18T18:50:48.187Z,1.90
2018-12-18T19:00:52.425Z,1.80
2018-12-18T19:10:56.800Z,2.20
2018-12-18T19:21:02.587Z,2.40
2018-12-18T19:31:07.325Z,2.40
2018-12-18T19:41:11.454Z,2.40
2018-12-18T19:51:15.604Z,2.10
2018-12-18T20:01:20.769Z,1.50
2018-12-18T20:11:24.896Z,1.10
2018-12-18T20:21:30.372Z,0.80
2018-12-18T20:31:34.855Z,0.60
2018-12-18T20:41:39.154Z,0.60
2018-12-18T20:51:43.253Z,0.50
2018-12-18T21:01:47.402Z,0.20
2018-12-18T21:11:51.706Z,0.00
2018-12-18T21:21:55.889Z,0.00
2018-12-18T21:32:00.221Z,-0.10
2018-12-18T21:42:04.475Z,-0.20
2018-12-18T21:52:08.619Z,-0.20
2018-12-18T22:02:12.829Z,-0.20
2018-12-18T22:12:18.203Z,-0.30
2018-12-18T22:22:22.500Z,-0.20
2018-12-18T22:32:26.735Z,-0.30
2018-12-18T22:42:30.979Z,-0.30
2018-12-18T22:52:35.112Z,-0.20
2018-12-18T23:02:39.230Z,0.00
2018-12-18T23:12:43.444Z,0.10
2018-12-18T23:22:48.103Z,0.30
2018-12-18T23:32:52.197Z,0.40
2018-12-18T23:42:56.296Z,0.40
2018-12-18T23:53:00.477Z,0.40
